Nomad — 9HA2354 — position and weather

sailwx.info

Track history (hours):
 
Tides and Currents Weather Stations Pressure Air Temp Water Temp Dewpoint Dewpoint Depression Visibility Wind Speed Wind Dir Waves Ship Positions

Nomad

Last reported at 2014-Sep-26 04:33 UTC. Time now 2014-Oct-25 07:07 UTC.
Position N 37°35' E 024°35'.
Warning: this ship's position is 29 days out of date.

Length 70 m; draft 2.8 m.

Type: Other ship. MMSI: 248413000.

Date/timePositionNaut miles runAvg speedWind from/ knotsBaromVisibWave heightAir tempDewpointWater temp
2014-Sep-26 04:33N 37°35' E 024°35'1513.2
2014-Sep-26 03:27N 37°25' E 024°49'4 4.1
2014-Sep-26 02:33N 37°24' E 024°53'0 0.0
2014-Sep-25 16:18N 37°24' E 024°53'5 6.9
2014-Sep-25 15:33N 37°22' E 024°59'1211.9
2014-Sep-25 14:33N 37°24' E 025°13'0 0.1
2014-Sep-25 13:32N 37°24' E 025°13'0 0.0
2014-Sep-25 12:32N 37°24' E 025°13'0 0.0
2014-Sep-25 11:32N 37°24' E 025°13'1 0.8
2014-Sep-25 10:33N 37°23' E 025°13'2 2.1
2014-Sep-25 09:33N 37°23' E 025°16'0 0.0
2014-Sep-25 08:33N 37°23' E 025°16'0 0.0
2014-Sep-25 07:33N 37°23' E 025°16'0 0.0
2014-Sep-25 06:30N 37°23' E 025°16'2 1.9
2014-Sep-25 05:33N 37°22' E 025°18'3 2.6
2014-Sep-25 04:31N 37°25' E 025°19'0 0.0
2014-Sep-25 03:31N 37°25' E 025°19'0 0.0
2014-Sep-25 02:32N 37°25' E 025°19'0 0.0
2014-Sep-25 01:31N 37°25' E 025°19'0 0.0
2014-Sep-25 00:31N 37°25' E 025°19'0 0.0
2014-Sep-24 23:31N 37°25' E 025°19'0 0.0
2014-Sep-24 22:31N 37°25' E 025°19'0 0.0
2014-Sep-24 21:31N 37°25' E 025°19'0 0.0
2014-Sep-24 20:31N 37°25' E 025°19'0 0.0
2014-Sep-24 19:31N 37°25' E 025°19'0 0.0
2014-Sep-24 18:31N 37°25' E 025°19'0 0.0
2014-Sep-24 17:31N 37°25' E 025°19'0 0.0
2014-Sep-24 16:31N 37°25' E 025°19'0 0.0
2014-Sep-24 15:31N 37°25' E 025°19'0 0.0
2014-Sep-24 14:31N 37°25' E 025°19'0 0.0
2014-Sep-24 13:31N 37°25' E 025°19'0 0.0
2014-Sep-24 12:31N 37°25' E 025°19'0 0.0
2014-Sep-24 11:31N 37°25' E 025°19'0 0.0
2014-Sep-24 10:31N 37°25' E 025°19'0 0.0
2014-Sep-24 09:31N 37°25' E 025°19'0 0.0
2014-Sep-24 08:31N 37°25' E 025°19'0 0.0
2014-Sep-24 07:31N 37°25' E 025°19'0 0.0
2014-Sep-24 06:31N 37°25' E 025°19'0 0.0
2014-Sep-24 05:28N 37°25' E 025°19'0 0.0
2014-Sep-24 04:31N 37°25' E 025°19'0 0.0
2014-Sep-24 03:31N 37°25' E 025°19'0 0.0
2014-Sep-24 02:31N 37°25' E 025°19'0 0.0
2014-Sep-24 01:31N 37°25' E 025°19'0 0.0
2014-Sep-24 00:28N 37°25' E 025°19'0 0.0
2014-Sep-23 23:28N 37°25' E 025°19'0 0.0
2014-Sep-23 22:28N 37°25' E 025°19'0 0.0
2014-Sep-23 21:28N 37°25' E 025°19'0 0.0
2014-Sep-23 20:31N 37°25' E 025°19'0 0.0
2014-Sep-23 19:28N 37°25' E 025°19'0 0.0
2014-Sep-23 18:28N 37°25' E 025°19'1 1.6
2014-Sep-23 17:33N 37°24' E 025°18'6 5.3
2014-Sep-23 16:31N 37°29' E 025°22'0 0.0
2014-Sep-23 15:31N 37°29' E 025°22'0 0.0
2014-Sep-23 14:31N 37°29' E 025°22'0 0.0
2014-Sep-23 13:34N 37°29' E 025°22'0 0.1
2014-Sep-23 12:32N 37°29' E 025°22'0 0.0
2014-Sep-23 11:32N 37°29' E 025°22'0 0.5
2014-Sep-23 10:32N 37°29' E 025°22'0 0.0
2014-Sep-23 09:32N 37°29' E 025°22'0 0.1
2014-Sep-23 08:30N 37°29' E 025°22'6 6.2
2014-Sep-23 07:33N 37°24' E 025°18'1 1.3
2014-Sep-23 06:32N 37°25' E 025°19'0 0.0
2014-Sep-23 05:32N 37°25' E 025°19'0 0.0
2014-Sep-23 04:29N 37°25' E 025°19'0 0.1
2014-Sep-23 03:32N 37°25' E 025°19'0 0.0
2014-Sep-23 02:29N 37°25' E 025°19'0 0.0
2014-Sep-23 01:32N 37°25' E 025°19'0 0.0
2014-Sep-23 00:32N 37°25' E 025°19'0 0.0
2014-Sep-22 23:32N 37°25' E 025°19'0 0.0
2014-Sep-22 22:32N 37°25' E 025°19'0 0.0
2014-Sep-22 21:29N 37°25' E 025°19'0 0.0
2014-Sep-22 20:31N 37°25' E 025°19'0 0.0
2014-Sep-22 19:26N 37°25' E 025°19'0 0.0
2014-Sep-22 18:28N 37°25' E 025°19'0 0.0
2014-Sep-22 17:22N 37°25' E 025°19'0 0.0
2014-Sep-22 16:32N 37°25' E 025°19'0 0.0
2014-Sep-22 15:32N 37°25' E 025°19'0 0.0
2014-Sep-22 14:31N 37°25' E 025°19'0 0.0
2014-Sep-22 13:31N 37°25' E 025°19'0 0.0
2014-Sep-22 12:31N 37°25' E 025°19'0 0.0
2014-Sep-22 11:31N 37°25' E 025°19'0 0.0
2014-Sep-22 10:32N 37°25' E 025°19'0 0.0
2014-Sep-22 09:31N 37°25' E 025°19'0 0.0
2014-Sep-22 08:29N 37°25' E 025°19'0 0.0
2014-Sep-22 07:28N 37°25' E 025°19'0 0.0
2014-Sep-22 06:29N 37°25' E 025°19'0 0.0
2014-Sep-22 05:32N 37°25' E 025°19'0 0.0
2014-Sep-22 04:32N 37°25' E 025°19'0 0.0
2014-Sep-22 03:33N 37°25' E 025°19'0 0.0
2014-Sep-22 02:33N 37°25' E 025°19'0 0.0
2014-Sep-22 01:33N 37°25' E 025°19'0 0.0
2014-Sep-22 00:29N 37°25' E 025°19'0 0.0
2014-Sep-21 23:32N 37°25' E 025°19'0 0.0
2014-Sep-21 22:32N 37°25' E 025°19'0 0.0
2014-Sep-21 21:32N 37°25' E 025°19'0 0.0
2014-Sep-21 20:33N 37°25' E 025°19'0 0.0
2014-Sep-21 19:33N 37°25' E 025°19'0 0.0
2014-Sep-21 18:33N 37°25' E 025°19'0 0.0
2014-Sep-21 17:33N 37°25' E 025°19'0 0.0
2014-Sep-21 16:32N 37°25' E 025°19'7 7.5
2014-Sep-21 15:33N 37°30' E 025°12'5 4.8
2014-Sep-21 14:33N 37°33' E 025°08'0 0.0
2014-Sep-21 13:31N 37°33' E 025°08'0 0.0
2014-Sep-21 12:25N 37°33' E 025°08'0 0.0
2014-Sep-21 11:31N 37°33' E 025°08'0 0.0
2014-Sep-21 10:31N 37°33' E 025°08'0 0.0
2014-Sep-21 09:28N 37°33' E 025°08'0 0.0
2014-Sep-21 08:31N 37°33' E 025°08'0 0.0
2014-Sep-21 07:31N 37°33' E 025°08'0 0.0
2014-Sep-21 06:25N 37°33' E 025°08'0 0.0
2014-Sep-21 05:31N 37°33' E 025°08'0 0.0
2014-Sep-21 04:28N 37°33' E 025°08'0 0.0
2014-Sep-21 03:31N 37°33' E 025°08'0 0.0
2014-Sep-21 02:31N 37°33' E 025°08'0 0.0
2014-Sep-21 01:31N 37°33' E 025°08'0 0.0
2014-Sep-21 00:31N 37°33' E 025°08'0 0.0
2014-Sep-20 23:31N 37°33' E 025°08'0 0.0
2014-Sep-20 22:28N 37°33' E 025°08'0 0.0
2014-Sep-20 21:31N 37°33' E 025°08'0 0.0
2014-Sep-20 20:31N 37°33' E 025°08'0 0.0
2014-Sep-20 19:25N 37°33' E 025°08'0 0.1
2014-Sep-20 18:31N 37°33' E 025°08'0 0.0
2014-Sep-20 17:31N 37°33' E 025°08'0 0.0
2014-Sep-20 16:31N 37°33' E 025°08'0 0.0
2014-Sep-20 15:31N 37°33' E 025°08'0 0.0
2014-Sep-20 14:25N 37°33' E 025°08'0 0.0
2014-Sep-20 13:31N 37°33' E 025°08'0 0.0
2014-Sep-20 12:31N 37°33' E 025°08'0 0.0
2014-Sep-20 11:28N 37°33' E 025°08'2 2.7
2014-Sep-20 10:33N 37°31' E 025°10'1010.2
2014-Sep-20 09:33N 37°24' E 025°19'1 0.9
2014-Sep-20 08:30N 37°25' E 025°20'0 0.0
2014-Sep-20 07:33N 37°25' E 025°20'0 0.0
2014-Sep-20 06:33N 37°25' E 025°20'0 0.0
2014-Sep-20 05:33N 37°25' E 025°20'0 0.0
2014-Sep-20 04:33N 37°25' E 025°19'0 0.0
2014-Sep-20 03:33N 37°25' E 025°20'0 0.0
2014-Sep-20 02:33N 37°25' E 025°19'0 0.0
2014-Sep-20 01:33N 37°25' E 025°20'0 0.0
2014-Sep-20 00:30N 37°25' E 025°20'0 0.0
2014-Sep-19 23:33N 37°25' E 025°20'0 0.0
2014-Sep-19 22:33N 37°25' E 025°20'0 0.0
2014-Sep-19 21:33N 37°25' E 025°20'0 0.0
2014-Sep-19 20:33N 37°25' E 025°19'0 0.0
2014-Sep-19 19:33N 37°25' E 025°20'0 0.0
2014-Sep-19 18:33N 37°25' E 025°19'0 0.0
2014-Sep-19 17:33N 37°25' E 025°20'0 0.0
2014-Sep-19 16:33N 37°25' E 025°20'0 0.0
2014-Sep-19 15:30N 37°25' E 025°20'0 0.0
2014-Sep-19 14:33N 37°25' E 025°20'0 0.0
2014-Sep-19 13:33N 37°25' E 025°20'0 0.0
2014-Sep-19 12:33N 37°25' E 025°20'0 0.0
2014-Sep-19 11:33N 37°25' E 025°20'0 0.0
2014-Sep-19 10:33N 37°25' E 025°19'0 0.0
2014-Sep-19 09:33N 37°25' E 025°20'0 0.0
2014-Sep-19 08:33N 37°25' E 025°19'0 0.0
2014-Sep-19 07:33N 37°25' E 025°19'0 0.0
2014-Sep-19 06:33N 37°25' E 025°20'0 0.0
2014-Sep-19 05:33N 37°25' E 025°20'0 0.0
2014-Sep-19 04:33N 37°25' E 025°19'0 0.0
2014-Sep-19 03:33N 37°25' E 025°20'0 0.0
2014-Sep-19 02:33N 37°25' E 025°20'0 0.0
2014-Sep-19 01:33N 37°25' E 025°20'0 0.0
2014-Sep-19 00:30N 37°25' E 025°20'0 0.0
2014-Sep-18 23:33N 37°25' E 025°20'0 0.0
2014-Sep-18 22:30N 37°25' E 025°20'0 0.0
2014-Sep-18 21:32N 37°25' E 025°20'0 0.0
2014-Sep-18 20:33N 37°25' E 025°20'0 0.0
2014-Sep-18 19:33N 37°25' E 025°19'0 0.0
2014-Sep-18 18:33N 37°25' E 025°20'0 0.0
2014-Sep-18 17:30N 37°25' E 025°20'0 0.0
2014-Sep-18 16:33N 37°25' E 025°19'0 0.0
2014-Sep-18 15:33N 37°25' E 025°20'0 0.0
2014-Sep-18 14:33N 37°25' E 025°20'0 0.0
2014-Sep-18 13:33N 37°25' E 025°20'0 0.0
2014-Sep-18 12:32N 37°25' E 025°20'0 0.0
2014-Sep-18 11:33N 37°25' E 025°20'0 0.0
2014-Sep-18 10:33N 37°25' E 025°20'0 0.0
2014-Sep-18 09:29N 37°25' E 025°20'0 0.0
2014-Sep-18 08:32N 37°25' E 025°20'0 0.0
2014-Sep-18 07:29N 37°25' E 025°20'0 0.0
2014-Sep-18 06:33N 37°25' E 025°20'0 0.0
2014-Sep-18 05:33N 37°25' E 025°20'0 0.0
2014-Sep-18 04:32N 37°25' E 025°20'0 0.0
2014-Sep-18 03:29N 37°25' E 025°20'0 0.0
2014-Sep-18 02:32N 37°25' E 025°20'0 0.0
2014-Sep-18 01:33N 37°25' E 025°20'0 0.0
2014-Sep-18 00:33N 37°25' E 025°20'0 0.0
2014-Sep-17 23:29N 37°25' E 025°19'0 0.0
2014-Sep-17 22:32N 37°25' E 025°20'0 0.0
2014-Sep-17 21:33N 37°25' E 025°20'0 0.0
2014-Sep-17 20:29N 37°25' E 025°20'0 0.0
2014-Sep-17 19:33N 37°25' E 025°20'0 0.0
2014-Sep-17 18:29N 37°25' E 025°20'0 0.0
2014-Sep-17 17:32N 37°25' E 025°20'0 0.0
2014-Sep-17 16:29N 37°25' E 025°20'0 0.0
2014-Sep-17 15:17N 37°25' E 025°20'0 0.0
2014-Sep-17 14:32N 37°25' E 025°20'0 0.0
2014-Sep-17 13:32N 37°25' E 025°20'0 0.0
2014-Sep-17 12:32N 37°25' E 025°20'0 0.0
2014-Sep-17 11:32N 37°25' E 025°20'0 0.0
2014-Sep-17 10:29N 37°25' E 025°20'0 0.0
2014-Sep-17 09:33N 37°25' E 025°20'0 0.0
2014-Sep-17 08:33N 37°25' E 025°20'0 0.0
2014-Sep-17 07:32N 37°25' E 025°20'0 0.0
2014-Sep-17 06:32N 37°25' E 025°20'1 0.7
2014-Sep-17 05:33N 37°24' E 025°20'1 0.6
2014-Sep-17 04:32N 37°25' E 025°21'0 0.0
2014-Sep-17 03:32N 37°25' E 025°21'0 0.0
2014-Sep-17 02:32N 37°25' E 025°21'0 0.0
2014-Sep-17 01:32N 37°25' E 025°21'0 0.0
2014-Sep-17 00:32N 37°25' E 025°21'0 0.0
2014-Sep-16 23:29N 37°25' E 025°21'0 0.0
2014-Sep-16 22:32N 37°25' E 025°21'0 0.0
2014-Sep-16 21:32N 37°25' E 025°21'0 0.0
2014-Sep-16 20:32N 37°25' E 025°21'0 0.0
2014-Sep-16 19:32N 37°25' E 025°21'0 0.0
2014-Sep-16 18:32N 37°25' E 025°21'0 0.0
2014-Sep-16 17:32N 37°25' E 025°21'0 0.0
2014-Sep-16 16:29N 37°25' E 025°21'0 0.0
2014-Sep-16 15:33N 37°25' E 025°21'1 1.4
2014-Sep-16 14:33N 37°24' E 025°19'4 4.1
2014-Sep-16 13:33N 37°23' E 025°14'0 0.0
2014-Sep-16 12:33N 37°23' E 025°14'0 0.0
2014-Sep-16 11:34N 37°23' E 025°14'0 0.0
2014-Sep-16 10:34N 37°23' E 025°14'0 0.0
2014-Sep-16 09:33N 37°23' E 025°14'3 3.2
2014-Sep-16 08:33N 37°23' E 025°18'2 2.4
2014-Sep-16 07:32N 37°25' E 025°20'0 0.0
2014-Sep-16 06:32N 37°24' E 025°20'0 0.0
2014-Sep-16 05:32N 37°25' E 025°20'  
Track history (hours):
 
Tides and Currents Weather Stations Pressure Air Temp Water Temp Dewpoint Dewpoint Depression Visibility Wind Speed Wind Dir Waves Ship Positions

Nomad

Last reported at 2014-Sep-26 04:33 UTC. Time now 2014-Oct-25 07:07 UTC.
Position N 37°35' E 024°35'.
Warning: this ship's position is 29 days out of date.

Length 70 m; draft 2.8 m.

Type: Other ship. MMSI: 248413000.

Date/timePositionNaut miles runAvg speedWind from/ knotsBaromVisibWave heightAir tempDewpointWater temp
2014-Sep-26 04:33N 37°35' E 024°35'1513.2
2014-Sep-26 03:27N 37°25' E 024°49'4 4.1
2014-Sep-26 02:33N 37°24' E 024°53'0 0.0
2014-Sep-25 16:18N 37°24' E 024°53'5 6.9
2014-Sep-25 15:33N 37°22' E 024°59'1211.9
2014-Sep-25 14:33N 37°24' E 025°13'0 0.1
2014-Sep-25 13:32N 37°24' E 025°13'0 0.0
2014-Sep-25 12:32N 37°24' E 025°13'0 0.0
2014-Sep-25 11:32N 37°24' E 025°13'1 0.8
2014-Sep-25 10:33N 37°23' E 025°13'2 2.1
2014-Sep-25 09:33N 37°23' E 025°16'0 0.0
2014-Sep-25 08:33N 37°23' E 025°16'0 0.0
2014-Sep-25 07:33N 37°23' E 025°16'0 0.0
2014-Sep-25 06:30N 37°23' E 025°16'2 1.9
2014-Sep-25 05:33N 37°22' E 025°18'3 2.6
2014-Sep-25 04:31N 37°25' E 025°19'0 0.0
2014-Sep-25 03:31N 37°25' E 025°19'0 0.0
2014-Sep-25 02:32N 37°25' E 025°19'0 0.0
2014-Sep-25 01:31N 37°25' E 025°19'0 0.0
2014-Sep-25 00:31N 37°25' E 025°19'0 0.0
2014-Sep-24 23:31N 37°25' E 025°19'0 0.0
2014-Sep-24 22:31N 37°25' E 025°19'0 0.0
2014-Sep-24 21:31N 37°25' E 025°19'0 0.0
2014-Sep-24 20:31N 37°25' E 025°19'0 0.0
2014-Sep-24 19:31N 37°25' E 025°19'0 0.0
2014-Sep-24 18:31N 37°25' E 025°19'0 0.0
2014-Sep-24 17:31N 37°25' E 025°19'0 0.0
2014-Sep-24 16:31N 37°25' E 025°19'0 0.0
2014-Sep-24 15:31N 37°25' E 025°19'0 0.0
2014-Sep-24 14:31N 37°25' E 025°19'0 0.0
2014-Sep-24 13:31N 37°25' E 025°19'0 0.0
2014-Sep-24 12:31N 37°25' E 025°19'0 0.0
2014-Sep-24 11:31N 37°25' E 025°19'0 0.0
2014-Sep-24 10:31N 37°25' E 025°19'0 0.0
2014-Sep-24 09:31N 37°25' E 025°19'0 0.0
2014-Sep-24 08:31N 37°25' E 025°19'0 0.0
2014-Sep-24 07:31N 37°25' E 025°19'0 0.0
2014-Sep-24 06:31N 37°25' E 025°19'0 0.0
2014-Sep-24 05:28N 37°25' E 025°19'0 0.0
2014-Sep-24 04:31N 37°25' E 025°19'0 0.0
2014-Sep-24 03:31N 37°25' E 025°19'0 0.0
2014-Sep-24 02:31N 37°25' E 025°19'0 0.0
2014-Sep-24 01:31N 37°25' E 025°19'0 0.0
2014-Sep-24 00:28N 37°25' E 025°19'0 0.0
2014-Sep-23 23:28N 37°25' E 025°19'0 0.0
2014-Sep-23 22:28N 37°25' E 025°19'0 0.0
2014-Sep-23 21:28N 37°25' E 025°19'0 0.0
2014-Sep-23 20:31N 37°25' E 025°19'0 0.0
2014-Sep-23 19:28N 37°25' E 025°19'0 0.0
2014-Sep-23 18:28N 37°25' E 025°19'1 1.6
2014-Sep-23 17:33N 37°24' E 025°18'6 5.3
2014-Sep-23 16:31N 37°29' E 025°22'0 0.0
2014-Sep-23 15:31N 37°29' E 025°22'0 0.0
2014-Sep-23 14:31N 37°29' E 025°22'0 0.0
2014-Sep-23 13:34N 37°29' E 025°22'0 0.1
2014-Sep-23 12:32N 37°29' E 025°22'0 0.0
2014-Sep-23 11:32N 37°29' E 025°22'0 0.5
2014-Sep-23 10:32N 37°29' E 025°22'0 0.0
2014-Sep-23 09:32N 37°29' E 025°22'0 0.1
2014-Sep-23 08:30N 37°29' E 025°22'6 6.2
2014-Sep-23 07:33N 37°24' E 025°18'1 1.3
2014-Sep-23 06:32N 37°25' E 025°19'0 0.0
2014-Sep-23 05:32N 37°25' E 025°19'0 0.0
2014-Sep-23 04:29N 37°25' E 025°19'0 0.1
2014-Sep-23 03:32N 37°25' E 025°19'0 0.0
2014-Sep-23 02:29N 37°25' E 025°19'0 0.0
2014-Sep-23 01:32N 37°25' E 025°19'0 0.0
2014-Sep-23 00:32N 37°25' E 025°19'0 0.0
2014-Sep-22 23:32N 37°25' E 025°19'0 0.0
2014-Sep-22 22:32N 37°25' E 025°19'0 0.0
2014-Sep-22 21:29N 37°25' E 025°19'0 0.0
2014-Sep-22 20:31N 37°25' E 025°19'0 0.0
2014-Sep-22 19:26N 37°25' E 025°19'0 0.0
2014-Sep-22 18:28N 37°25' E 025°19'0 0.0
2014-Sep-22 17:22N 37°25' E 025°19'0 0.0
2014-Sep-22 16:32N 37°25' E 025°19'0 0.0
2014-Sep-22 15:32N 37°25' E 025°19'0 0.0
2014-Sep-22 14:31N 37°25' E 025°19'0 0.0
2014-Sep-22 13:31N 37°25' E 025°19'0 0.0
2014-Sep-22 12:31N 37°25' E 025°19'0 0.0
2014-Sep-22 11:31N 37°25' E 025°19'0 0.0
2014-Sep-22 10:32N 37°25' E 025°19'0 0.0
2014-Sep-22 09:31N 37°25' E 025°19'0 0.0
2014-Sep-22 08:29N 37°25' E 025°19'0 0.0
2014-Sep-22 07:28N 37°25' E 025°19'0 0.0
2014-Sep-22 06:29N 37°25' E 025°19'0 0.0
2014-Sep-22 05:32N 37°25' E 025°19'0 0.0
2014-Sep-22 04:32N 37°25' E 025°19'0 0.0
2014-Sep-22 03:33N 37°25' E 025°19'0 0.0
2014-Sep-22 02:33N 37°25' E 025°19'0 0.0
2014-Sep-22 01:33N 37°25' E 025°19'0 0.0
2014-Sep-22 00:29N 37°25' E 025°19'0 0.0
2014-Sep-21 23:32N 37°25' E 025°19'0 0.0
2014-Sep-21 22:32N 37°25' E 025°19'0 0.0
2014-Sep-21 21:32N 37°25' E 025°19'0 0.0
2014-Sep-21 20:33N 37°25' E 025°19'0 0.0
2014-Sep-21 19:33N 37°25' E 025°19'0 0.0
2014-Sep-21 18:33N 37°25' E 025°19'0 0.0
2014-Sep-21 17:33N 37°25' E 025°19'0 0.0
2014-Sep-21 16:32N 37°25' E 025°19'7 7.5
2014-Sep-21 15:33N 37°30' E 025°12'5 4.8
2014-Sep-21 14:33N 37°33' E 025°08'0 0.0
2014-Sep-21 13:31N 37°33' E 025°08'0 0.0
2014-Sep-21 12:25N 37°33' E 025°08'0 0.0
2014-Sep-21 11:31N 37°33' E 025°08'0 0.0
2014-Sep-21 10:31N 37°33' E 025°08'0 0.0
2014-Sep-21 09:28N 37°33' E 025°08'0 0.0
2014-Sep-21 08:31N 37°33' E 025°08'0 0.0
2014-Sep-21 07:31N 37°33' E 025°08'0 0.0
2014-Sep-21 06:25N 37°33' E 025°08'0 0.0
2014-Sep-21 05:31N 37°33' E 025°08'0 0.0
2014-Sep-21 04:28N 37°33' E 025°08'0 0.0
2014-Sep-21 03:31N 37°33' E 025°08'0 0.0
2014-Sep-21 02:31N 37°33' E 025°08'0 0.0
2014-Sep-21 01:31N 37°33' E 025°08'0 0.0
2014-Sep-21 00:31N 37°33' E 025°08'0 0.0
2014-Sep-20 23:31N 37°33' E 025°08'0 0.0
2014-Sep-20 22:28N 37°33' E 025°08'0 0.0
2014-Sep-20 21:31N 37°33' E 025°08'0 0.0
2014-Sep-20 20:31N 37°33' E 025°08'0 0.0
2014-Sep-20 19:25N 37°33' E 025°08'0 0.1
2014-Sep-20 18:31N 37°33' E 025°08'0 0.0
2014-Sep-20 17:31N 37°33' E 025°08'0 0.0
2014-Sep-20 16:31N 37°33' E 025°08'0 0.0
2014-Sep-20 15:31N 37°33' E 025°08'0 0.0
2014-Sep-20 14:25N 37°33' E 025°08'0 0.0
2014-Sep-20 13:31N 37°33' E 025°08'0 0.0
2014-Sep-20 12:31N 37°33' E 025°08'0 0.0
2014-Sep-20 11:28N 37°33' E 025°08'2 2.7
2014-Sep-20 10:33N 37°31' E 025°10'1010.2
2014-Sep-20 09:33N 37°24' E 025°19'1 0.9
2014-Sep-20 08:30N 37°25' E 025°20'0 0.0
2014-Sep-20 07:33N 37°25' E 025°20'0 0.0
2014-Sep-20 06:33N 37°25' E 025°20'0 0.0
2014-Sep-20 05:33N 37°25' E 025°20'0 0.0
2014-Sep-20 04:33N 37°25' E 025°19'0 0.0
2014-Sep-20 03:33N 37°25' E 025°20'0 0.0
2014-Sep-20 02:33N 37°25' E 025°19'0 0.0
2014-Sep-20 01:33N 37°25' E 025°20'0 0.0
2014-Sep-20 00:30N 37°25' E 025°20'0 0.0
2014-Sep-19 23:33N 37°25' E 025°20'0 0.0
2014-Sep-19 22:33N 37°25' E 025°20'0 0.0
2014-Sep-19 21:33N 37°25' E 025°20'0 0.0
2014-Sep-19 20:33N 37°25' E 025°19'0 0.0
2014-Sep-19 19:33N 37°25' E 025°20'0 0.0
2014-Sep-19 18:33N 37°25' E 025°19'0 0.0
2014-Sep-19 17:33N 37°25' E 025°20'0 0.0
2014-Sep-19 16:33N 37°25' E 025°20'0 0.0
2014-Sep-19 15:30N 37°25' E 025°20'0 0.0
2014-Sep-19 14:33N 37°25' E 025°20'0 0.0
2014-Sep-19 13:33N 37°25' E 025°20'0 0.0
2014-Sep-19 12:33N 37°25' E 025°20'0 0.0
2014-Sep-19 11:33N 37°25' E 025°20'0 0.0
2014-Sep-19 10:33N 37°25' E 025°19'0 0.0
2014-Sep-19 09:33N 37°25' E 025°20'0 0.0
2014-Sep-19 08:33N 37°25' E 025°19'0 0.0
2014-Sep-19 07:33N 37°25' E 025°19'0 0.0
2014-Sep-19 06:33N 37°25' E 025°20'0 0.0
2014-Sep-19 05:33N 37°25' E 025°20'0 0.0
2014-Sep-19 04:33N 37°25' E 025°19'0 0.0
2014-Sep-19 03:33N 37°25' E 025°20'0 0.0
2014-Sep-19 02:33N 37°25' E 025°20'0 0.0
2014-Sep-19 01:33N 37°25' E 025°20'0 0.0
2014-Sep-19 00:30N 37°25' E 025°20'0 0.0
2014-Sep-18 23:33N 37°25' E 025°20'0 0.0
2014-Sep-18 22:30N 37°25' E 025°20'0 0.0
2014-Sep-18 21:32N 37°25' E 025°20'0 0.0
2014-Sep-18 20:33N 37°25' E 025°20'0 0.0
2014-Sep-18 19:33N 37°25' E 025°19'0 0.0
2014-Sep-18 18:33N 37°25' E 025°20'0 0.0
2014-Sep-18 17:30N 37°25' E 025°20'0 0.0
2014-Sep-18 16:33N 37°25' E 025°19'0 0.0
2014-Sep-18 15:33N 37°25' E 025°20'0 0.0
2014-Sep-18 14:33N 37°25' E 025°20'0 0.0
2014-Sep-18 13:33N 37°25' E 025°20'0 0.0
2014-Sep-18 12:32N 37°25' E 025°20'0 0.0
2014-Sep-18 11:33N 37°25' E 025°20'0 0.0
2014-Sep-18 10:33N 37°25' E 025°20'0 0.0
2014-Sep-18 09:29N 37°25' E 025°20'0 0.0
2014-Sep-18 08:32N 37°25' E 025°20'0 0.0
2014-Sep-18 07:29N 37°25' E 025°20'0 0.0
2014-Sep-18 06:33N 37°25' E 025°20'0 0.0
2014-Sep-18 05:33N 37°25' E 025°20'0 0.0
2014-Sep-18 04:32N 37°25' E 025°20'0 0.0
2014-Sep-18 03:29N 37°25' E 025°20'0 0.0
2014-Sep-18 02:32N 37°25' E 025°20'0 0.0
2014-Sep-18 01:33N 37°25' E 025°20'0 0.0
2014-Sep-18 00:33N 37°25' E 025°20'0 0.0
2014-Sep-17 23:29N 37°25' E 025°19'0 0.0
2014-Sep-17 22:32N 37°25' E 025°20'0 0.0
2014-Sep-17 21:33N 37°25' E 025°20'0 0.0
2014-Sep-17 20:29N 37°25' E 025°20'0 0.0
2014-Sep-17 19:33N 37°25' E 025°20'0 0.0
2014-Sep-17 18:29N 37°25' E 025°20'0 0.0
2014-Sep-17 17:32N 37°25' E 025°20'0 0.0
2014-Sep-17 16:29N 37°25' E 025°20'0 0.0
2014-Sep-17 15:17N 37°25' E 025°20'0 0.0
2014-Sep-17 14:32N 37°25' E 025°20'0 0.0
2014-Sep-17 13:32N 37°25' E 025°20'0 0.0
2014-Sep-17 12:32N 37°25' E 025°20'0 0.0
2014-Sep-17 11:32N 37°25' E 025°20'0 0.0
2014-Sep-17 10:29N 37°25' E 025°20'0 0.0
2014-Sep-17 09:33N 37°25' E 025°20'0 0.0
2014-Sep-17 08:33N 37°25' E 025°20'0 0.0
2014-Sep-17 07:32N 37°25' E 025°20'0 0.0
2014-Sep-17 06:32N 37°25' E 025°20'1 0.7
2014-Sep-17 05:33N 37°24' E 025°20'1 0.6
2014-Sep-17 04:32N 37°25' E 025°21'0 0.0
2014-Sep-17 03:32N 37°25' E 025°21'0 0.0
2014-Sep-17 02:32N 37°25' E 025°21'0 0.0
2014-Sep-17 01:32N 37°25' E 025°21'0 0.0
2014-Sep-17 00:32N 37°25' E 025°21'0 0.0
2014-Sep-16 23:29N 37°25' E 025°21'0 0.0
2014-Sep-16 22:32N 37°25' E 025°21'0 0.0
2014-Sep-16 21:32N 37°25' E 025°21'0 0.0
2014-Sep-16 20:32N 37°25' E 025°21'0 0.0
2014-Sep-16 19:32N 37°25' E 025°21'0 0.0
2014-Sep-16 18:32N 37°25' E 025°21'0 0.0
2014-Sep-16 17:32N 37°25' E 025°21'0 0.0
2014-Sep-16 16:29N 37°25' E 025°21'0 0.0
2014-Sep-16 15:33N 37°25' E 025°21'1 1.4
2014-Sep-16 14:33N 37°24' E 025°19'4 4.1
2014-Sep-16 13:33N 37°23' E 025°14'0 0.0
2014-Sep-16 12:33N 37°23' E 025°14'0 0.0
2014-Sep-16 11:34N 37°23' E 025°14'0 0.0
2014-Sep-16 10:34N 37°23' E 025°14'0 0.0
2014-Sep-16 09:33N 37°23' E 025°14'3 3.2
2014-Sep-16 08:33N 37°23' E 025°18'2 2.4
2014-Sep-16 07:32N 37°25' E 025°20'0 0.0
2014-Sep-16 06:32N 37°24' E 025°20'0 0.0
2014-Sep-16 05:32N 37°25' E 025°20'  

Dump ship's entire track history